createdAt,value
2018-05-02T00:01:47.140Z,6.03
2018-05-02T00:04:14.742Z,5.93
2018-05-02T00:06:42.304Z,6.30
2018-05-02T00:09:09.845Z,6.13
2018-05-02T00:11:37.422Z,5.70
2018-05-02T00:14:04.987Z,7.00
2018-05-02T00:16:32.562Z,6.37
2018-05-02T00:19:00.429Z,7.27
2018-05-02T00:21:27.974Z,7.27
2018-05-02T00:23:55.518Z,6.50
2018-05-02T00:26:23.252Z,7.30
2018-05-02T00:35:32.908Z,6.90
2018-05-02T00:38:00.465Z,7.07
2018-05-02T00:40:28.004Z,7.83
2018-05-02T00:42:55.577Z,7.00
2018-05-02T00:45:23.140Z,6.93
2018-05-02T00:47:50.702Z,7.00
2018-05-02T00:50:18.403Z,7.70
2018-05-02T00:52:45.948Z,7.13
2018-05-02T00:55:13.502Z,7.60
2018-05-02T00:57:41.265Z,7.23
2018-05-02T01:00:08.848Z,8.03
2018-05-02T01:02:36.423Z,7.27
2018-05-02T01:05:04.002Z,7.30
2018-05-02T01:07:31.533Z,6.70
2018-05-02T01:09:59.207Z,6.90
2018-05-02T01:12:26.752Z,7.23
2018-05-02T01:14:54.291Z,7.37
2018-05-02T01:17:21.872Z,6.70
2018-05-02T01:19:49.409Z,7.33
2018-05-02T01:22:16.963Z,7.50
2018-05-02T01:24:44.548Z,7.10
2018-05-02T01:27:12.109Z,6.37
2018-05-02T01:29:39.671Z,6.90
2018-05-02T01:32:07.360Z,6.97
2018-05-02T01:34:34.908Z,7.30
2018-05-02T01:37:02.466Z,7.23
2018-05-02T01:39:30.179Z,7.60
2018-05-02T01:41:57.723Z,7.50
2018-05-02T01:44:25.266Z,6.47
2018-05-02T01:46:52.867Z,7.13
2018-05-02T01:49:23.928Z,7.33
2018-05-02T01:51:51.508Z,7.03
2018-05-02T01:54:19.242Z,6.77
2018-05-02T01:56:46.801Z,8.20
2018-05-02T01:59:14.362Z,7.47
2018-05-02T02:01:42.236Z,7.17
2018-05-02T02:04:09.780Z,7.50
2018-05-02T02:06:37.384Z,7.87
2018-05-02T02:09:05.830Z,7.40
2018-05-02T02:11:33.379Z,6.97
2018-05-02T02:14:00.935Z,8.00
2018-05-02T02:16:28.521Z,6.83
2018-05-02T02:18:56.055Z,6.13
2018-05-02T02:21:23.612Z,7.83
2018-05-02T02:23:51.193Z,6.97
2018-05-02T02:26:18.730Z,7.03
2018-05-02T02:28:46.282Z,7.57
2018-05-02T02:31:13.898Z,7.10
2018-05-02T02:33:41.446Z,7.60
2018-05-02T02:36:08.989Z,6.70
2018-05-02T02:38:36.552Z,7.73
2018-05-02T02:41:04.100Z,6.67
2018-05-02T02:43:31.649Z,7.07
2018-05-02T02:45:59.239Z,7.70
2018-05-02T02:48:26.790Z,6.80
2018-05-02T02:50:54.345Z,6.97
2018-05-02T02:53:22.229Z,7.30
2018-05-02T02:55:49.776Z,7.77
2018-05-02T02:58:17.320Z,7.40
2018-05-02T03:00:44.916Z,7.73
2018-05-02T03:03:12.456Z,7.53
2018-05-02T03:05:40.025Z,7.60
2018-05-02T03:08:07.693Z,7.33
2018-05-02T03:10:35.229Z,7.80
2018-05-02T03:13:02.772Z,7.83
2018-05-02T03:15:30.496Z,6.70
2018-05-02T03:17:58.043Z,7.40
2018-05-02T03:20:25.590Z,7.17
2018-05-02T03:22:53.185Z,7.93
2018-05-02T03:25:20.748Z,7.23
2018-05-02T03:27:48.295Z,7.57
2018-05-02T03:30:16.159Z,7.77
2018-05-02T03:32:43.711Z,7.67
2018-05-02T03:35:11.247Z,7.53
2018-05-02T03:37:38.806Z,6.80
2018-05-02T03:40:06.374Z,6.80
2018-05-02T03:42:33.922Z,6.30
2018-05-02T03:45:01.597Z,6.60
2018-05-02T03:47:29.136Z,5.30
2018-05-02T03:49:56.711Z,5.80
2018-05-02T03:52:24.329Z,6.67
2018-05-02T03:54:51.882Z,6.17
2018-05-02T03:57:19.447Z,6.50
2018-05-02T03:59:58.857Z,5.83
2018-05-02T04:02:38.035Z,5.83
2018-05-02T04:05:17.405Z,5.50
2018-05-02T04:07:44.972Z,5.73
2018-05-02T04:10:12.691Z,5.60
2018-05-02T04:12:40.268Z,6.00
2018-05-02T04:15:07.807Z,5.10
2018-05-02T04:17:35.521Z,5.70
2018-05-02T04:20:03.081Z,5.67
2018-05-02T04:22:30.632Z,5.80
2018-05-02T04:24:58.376Z,5.53
2018-05-02T04:27:25.909Z,4.93
2018-05-02T04:29:53.441Z,5.73
2018-05-02T04:32:21.004Z,5.40
2018-05-02T04:34:48.541Z,5.87
2018-05-02T04:37:16.074Z,6.87
2018-05-02T04:39:43.677Z,6.13
2018-05-02T04:42:11.225Z,5.82
2018-05-02T04:44:38.768Z,5.90
2018-05-02T04:47:06.356Z,6.57
2018-05-02T04:49:33.903Z,6.50
2018-05-02T04:52:01.443Z,7.25
2018-05-02T04:54:29.336Z,6.95
2018-05-02T04:56:56.895Z,7.25
2018-05-02T04:59:24.498Z,7.07
2018-05-02T05:01:52.081Z,7.50
2018-05-02T05:04:19.627Z,7.55
2018-05-02T05:06:47.159Z,7.75
2018-05-02T05:09:15.057Z,8.65
2018-05-02T05:11:43.376Z,8.00
2018-05-02T05:14:10.923Z,8.20
2018-05-02T05:16:38.592Z,8.07
2018-05-02T05:19:06.129Z,9.23
2018-05-02T05:21:33.674Z,8.18
2018-05-02T05:24:01.431Z,8.95
2018-05-02T05:26:29.024Z,8.13
2018-05-02T05:28:56.569Z,8.73
2018-05-02T05:31:24.149Z,34.08
2018-05-02T05:33:51.703Z,11.75
2018-05-02T05:36:19.239Z,8.27
2018-05-02T05:38:46.970Z,7.57
2018-05-02T05:41:14.529Z,7.60
2018-05-02T05:43:42.179Z,8.20
2018-05-02T05:46:09.693Z,8.60
2018-05-02T05:48:37.230Z,8.07
2018-05-02T05:51:04.810Z,7.97
2018-05-02T05:53:32.384Z,7.83
2018-05-02T05:55:59.927Z,8.50
2018-05-02T05:58:27.579Z,8.70
2018-05-02T06:00:55.174Z,7.87
2018-05-02T06:03:22.711Z,8.13
2018-05-02T06:05:50.285Z,9.30
2018-05-02T06:08:19.054Z,8.47
2018-05-02T06:10:46.583Z,9.20
2018-05-02T06:13:14.136Z,8.90
2018-05-02T06:15:41.809Z,9.33
2018-05-02T06:18:09.353Z,9.80
2018-05-02T06:20:36.944Z,9.40
2018-05-02T06:23:04.522Z,9.13
2018-05-02T06:25:32.986Z,10.43
2018-05-02T06:28:00.541Z,11.27
2018-05-02T06:30:28.509Z,12.23
2018-05-02T06:32:56.060Z,14.67
2018-05-02T06:35:23.633Z,11.77
2018-05-02T06:37:51.445Z,15.67
2018-05-02T06:40:18.993Z,12.77
2018-05-02T06:42:46.551Z,14.10
2018-05-02T06:45:14.153Z,12.97
2018-05-02T06:47:41.712Z,12.00
2018-05-02T06:50:09.255Z,12.27
2018-05-02T06:52:36.891Z,11.50
2018-05-02T06:55:04.431Z,11.43
2018-05-02T06:57:32.007Z,10.97
2018-05-02T06:59:59.612Z,11.10
2018-05-02T07:02:27.176Z,10.77
2018-05-02T07:04:54.748Z,10.17
2018-05-02T07:07:22.305Z,10.43
2018-05-02T07:09:49.865Z,10.57
2018-05-02T07:12:17.460Z,10.13
2018-05-02T07:14:45.024Z,10.53
2018-05-02T07:17:12.574Z,11.60
2018-05-02T07:19:40.167Z,11.80
2018-05-02T07:22:07.722Z,10.40
2018-05-02T07:24:35.283Z,10.30
2018-05-02T07:27:03.135Z,8.50
2018-05-02T07:29:30.675Z,10.20
2018-05-02T07:31:58.246Z,9.37
2018-05-02T07:34:25.815Z,10.47
2018-05-02T07:36:53.368Z,9.57
2018-05-02T07:39:20.931Z,8.67
2018-05-02T07:41:48.512Z,8.33
2018-05-02T07:44:16.060Z,8.43
2018-05-02T07:46:43.611Z,8.40
2018-05-02T07:49:11.341Z,8.13
2018-05-02T09:00:18.204Z,5.33
2018-05-02T09:02:45.749Z,4.37
2018-05-02T09:05:13.292Z,4.80
2018-05-02T09:07:40.844Z,4.73
2018-05-02T09:10:08.396Z,4.90
2018-05-02T09:12:35.991Z,3.97
2018-05-02T09:15:03.575Z,4.17
2018-05-02T09:17:31.120Z,4.20
2018-05-02T09:19:58.696Z,5.13
2018-05-02T09:22:26.272Z,3.50
2018-05-02T09:24:53.826Z,4.20
2018-05-02T09:27:21.555Z,3.73
2018-05-02T09:29:49.086Z,3.80
2018-05-02T09:32:16.623Z,4.03
2018-05-02T09:34:44.199Z,3.80
2018-05-02T09:37:11.736Z,4.07
2018-05-02T09:39:39.286Z,3.73
2018-05-02T09:54:51.480Z,3.83
2018-05-02T09:57:19.030Z,4.40
2018-05-02T09:59:46.592Z,3.90
2018-05-02T10:02:14.169Z,4.63
2018-05-02T10:04:41.715Z,4.77
2018-05-02T10:07:09.243Z,4.07
2018-05-02T10:09:37.107Z,3.70
2018-05-02T10:12:04.687Z,4.60
2018-05-02T10:14:32.227Z,4.53
2018-05-02T10:16:59.816Z,4.63
2018-05-02T10:19:27.357Z,4.87
2018-05-02T10:21:54.895Z,4.10
2018-05-02T10:24:22.807Z,4.67
2018-05-02T10:26:50.372Z,4.20
2018-05-02T10:29:17.933Z,5.20
2018-05-02T10:31:45.705Z,4.30
2018-05-02T10:34:13.259Z,5.03
2018-05-02T10:36:40.817Z,4.97
2018-05-02T10:39:08.567Z,4.60
2018-05-02T10:41:36.118Z,4.60
2018-05-02T10:44:03.678Z,4.33
2018-05-02T10:46:31.407Z,4.00
2018-05-02T10:48:58.962Z,4.53
2018-05-02T10:51:26.526Z,4.13
2018-05-02T10:53:54.204Z,4.10
2018-05-02T10:56:21.753Z,4.87
2018-05-02T10:58:49.316Z,4.60
2018-05-02T11:01:16.952Z,4.33
2018-05-02T11:03:44.506Z,3.80
2018-05-02T11:06:12.083Z,4.50
2018-05-02T11:08:39.693Z,4.47
2018-05-02T11:11:07.235Z,5.30
2018-05-02T11:13:34.809Z,4.03
2018-05-02T11:16:02.572Z,5.17
2018-05-02T11:18:30.116Z,4.47
2018-05-02T11:20:57.679Z,3.70
2018-05-02T11:23:25.252Z,4.33
2018-05-02T11:25:52.798Z,3.50
2018-05-02T11:28:20.383Z,4.10
2018-05-02T11:30:47.942Z,4.13
2018-05-02T11:33:15.499Z,4.30
2018-05-02T11:35:43.056Z,4.23
2018-05-02T11:38:10.631Z,4.03
2018-05-02T11:40:38.199Z,4.07
2018-05-02T11:43:05.750Z,4.20
2018-05-02T11:45:33.355Z,4.43
2018-05-02T11:48:00.911Z,4.80
2018-05-02T11:50:28.449Z,4.23
2018-05-02T11:52:56.027Z,4.13
2018-05-02T11:55:23.590Z,4.23
2018-05-02T11:57:51.223Z,5.23
2018-05-02T12:00:18.898Z,3.97
2018-05-02T12:02:46.460Z,4.80
2018-05-02T12:05:14.032Z,4.53
2018-05-02T12:07:41.593Z,4.23
2018-05-02T12:10:09.142Z,3.80
2018-05-02T12:12:36.742Z,3.97
2018-05-02T12:15:04.350Z,3.63
2018-05-02T12:17:31.903Z,3.83
2018-05-02T12:19:59.506Z,3.53
2018-05-02T12:22:27.056Z,3.93
2018-05-02T12:24:54.591Z,4.03
2018-05-02T12:27:22.167Z,4.37
2018-05-02T12:29:49.754Z,3.37
2018-05-02T12:32:17.352Z,3.70
2018-05-02T12:34:45.046Z,3.30
2018-05-02T12:37:12.586Z,3.30
2018-05-02T12:39:40.147Z,3.10
2018-05-02T12:42:07.875Z,2.90
2018-05-02T12:44:35.425Z,3.20
2018-05-02T12:47:03.015Z,3.87
2018-05-02T12:49:30.738Z,3.30
2018-05-02T12:51:58.295Z,3.90
2018-05-02T12:54:25.842Z,3.67
2018-05-02T12:56:53.413Z,3.33
2018-05-02T12:59:20.972Z,3.30
2018-05-02T13:01:48.519Z,2.90
2018-05-02T13:04:16.103Z,3.40
2018-05-02T13:06:43.653Z,3.30
2018-05-02T13:09:11.191Z,2.93
2018-05-02T13:11:38.919Z,2.83
2018-05-02T13:14:06.466Z,3.20
2018-05-02T13:16:34.004Z,2.90
2018-05-02T13:19:01.560Z,2.67
2018-05-02T13:21:29.100Z,2.70
2018-05-02T13:23:56.661Z,2.90
2018-05-02T13:26:24.254Z,4.27
2018-05-02T13:28:51.806Z,2.07
2018-05-02T13:31:19.345Z,2.93
2018-05-02T13:33:47.110Z,2.53
2018-05-02T13:36:14.656Z,2.77
2018-05-02T13:38:42.208Z,2.90
2018-05-02T13:41:10.084Z,2.40
2018-05-02T13:43:37.620Z,2.10
2018-05-02T13:46:05.161Z,2.17
2018-05-02T13:48:32.753Z,2.10
2018-05-02T13:51:00.310Z,2.20
2018-05-02T13:53:27.850Z,2.10
2018-05-02T13:55:55.529Z,2.70
2018-05-02T13:58:23.103Z,2.23
2018-05-02T14:00:50.679Z,2.37
2018-05-02T14:03:18.434Z,2.10
2018-05-02T14:05:45.971Z,2.70
2018-05-02T14:08:13.534Z,2.53
2018-05-02T14:10:41.152Z,3.43
2018-05-02T14:13:08.707Z,3.70
2018-05-02T14:15:36.239Z,2.90
2018-05-02T14:18:03.960Z,3.23
2018-05-02T14:20:31.637Z,2.90
2018-05-02T14:22:59.188Z,3.23
2018-05-02T14:25:27.096Z,2.90
2018-05-02T14:27:54.641Z,3.33
2018-05-02T14:30:22.194Z,3.20
2018-05-02T14:32:49.821Z,2.87
2018-05-02T14:35:17.359Z,2.70
2018-05-02T14:37:44.911Z,2.93
2018-05-02T14:40:12.475Z,3.00
2018-05-02T14:42:40.016Z,3.20
2018-05-02T14:45:07.547Z,2.80
2018-05-02T14:47:35.499Z,2.60
2018-05-02T14:50:03.082Z,2.70
2018-05-02T14:52:30.627Z,2.80
2018-05-02T14:54:58.236Z,2.20
2018-05-02T14:57:25.784Z,2.80
2018-05-02T14:59:53.346Z,2.50
2018-05-02T15:02:21.001Z,2.20
2018-05-02T15:04:48.540Z,2.47
2018-05-02T15:07:16.083Z,2.70
2018-05-02T15:09:43.682Z,2.37
2018-05-02T15:12:11.237Z,2.20
2018-05-02T15:14:38.777Z,2.03
2018-05-02T15:17:06.447Z,2.43
2018-05-02T15:19:33.991Z,1.83
2018-05-02T15:22:01.564Z,1.90
2018-05-02T15:24:29.137Z,1.90
2018-05-02T15:26:56.724Z,1.80
2018-05-02T15:29:24.274Z,2.33
2018-05-02T15:31:52.051Z,2.70
2018-05-02T15:34:19.618Z,2.30
2018-05-02T15:36:47.186Z,2.00
2018-05-02T15:39:14.798Z,2.20
2018-05-02T15:41:42.348Z,2.20
2018-05-02T15:44:09.913Z,2.40
2018-05-02T15:46:37.580Z,2.40
2018-05-02T15:49:05.157Z,2.80
2018-05-02T15:51:32.695Z,3.10
2018-05-02T15:54:00.380Z,4.67
2018-05-02T15:56:27.941Z,5.73
2018-05-02T15:58:55.486Z,4.00
2018-05-02T16:01:23.645Z,4.30
2018-05-02T16:03:51.182Z,4.70
2018-05-02T16:06:18.742Z,3.70
2018-05-02T16:08:46.324Z,3.40
2018-05-02T16:11:13.875Z,2.17
2018-05-02T16:13:41.439Z,2.63
2018-05-02T16:16:09.137Z,2.37
2018-05-02T16:18:36.684Z,1.73
2018-05-02T16:21:04.232Z,2.13
2018-05-02T16:23:32.093Z,3.03
2018-05-02T16:25:59.637Z,2.30
2018-05-02T16:28:27.180Z,2.73
2018-05-02T16:30:54.915Z,2.00
2018-05-02T16:33:22.511Z,2.97
2018-05-02T16:35:50.041Z,3.60
2018-05-02T16:38:17.838Z,3.40
2018-05-02T16:40:45.338Z,3.90
2018-05-02T16:43:12.865Z,3.53
2018-05-02T16:45:40.723Z,4.10
2018-05-02T16:48:08.260Z,3.53
2018-05-02T16:50:35.806Z,4.33
2018-05-02T16:53:03.404Z,3.70
2018-05-02T16:55:30.969Z,3.40
2018-05-02T16:57:58.524Z,4.27
2018-05-02T17:00:26.391Z,3.60
2018-05-02T17:02:53.945Z,3.87
2018-05-02T17:05:21.497Z,4.03
2018-05-02T17:07:49.041Z,3.70
2018-05-02T17:10:16.600Z,4.10
2018-05-02T17:12:44.330Z,4.57
2018-05-02T17:15:11.899Z,3.87
2018-05-02T17:17:39.444Z,3.40
2018-05-02T17:20:07.054Z,2.93
2018-05-02T17:22:34.624Z,3.33
2018-05-02T17:25:02.180Z,2.70
2018-05-02T17:27:29.912Z,2.57
2018-05-02T17:29:57.455Z,2.17
2018-05-02T17:32:25.004Z,2.40
2018-05-02T17:34:52.700Z,4.93
2018-05-02T17:37:20.250Z,2.77
2018-05-02T17:39:47.816Z,2.47
2018-05-02T17:42:15.769Z,2.20
2018-05-02T17:44:43.307Z,2.50
2018-05-02T17:47:10.859Z,2.80
2018-05-02T17:49:38.601Z,3.10
2018-05-02T17:52:06.249Z,2.97
2018-05-02T17:54:33.819Z,3.37
2018-05-02T17:57:01.411Z,3.47
2018-05-02T17:59:28.967Z,3.40
2018-05-02T18:01:56.541Z,4.30
2018-05-02T18:04:24.129Z,3.90
2018-05-02T18:06:51.726Z,4.33
2018-05-02T18:09:19.283Z,4.30
2018-05-02T18:11:47.005Z,5.43
2018-05-02T18:14:14.583Z,5.53
2018-05-02T18:16:42.173Z,5.03
2018-05-02T18:19:09.921Z,4.33
2018-05-02T18:21:37.561Z,4.57
2018-05-02T18:24:05.093Z,4.37
2018-05-02T18:26:32.777Z,5.33
2018-05-02T18:29:00.353Z,4.63
2018-05-02T18:31:27.925Z,4.77
2018-05-02T18:33:55.955Z,4.17
2018-05-02T18:36:23.568Z,3.97
2018-05-02T18:38:51.106Z,2.83
2018-05-02T18:41:18.712Z,2.87
2018-05-02T18:43:46.278Z,3.20
2018-05-02T18:46:13.872Z,3.73
2018-05-02T18:48:41.791Z,3.63
2018-05-02T18:51:09.412Z,3.80
2018-05-02T18:53:36.994Z,4.20
2018-05-02T18:56:04.753Z,3.30
2018-05-02T18:58:32.323Z,3.20
2018-05-02T19:00:59.890Z,3.60
2018-05-02T19:03:27.500Z,3.50
2018-05-02T19:05:55.070Z,4.13
2018-05-02T19:08:22.680Z,3.80
2018-05-02T19:10:50.263Z,3.50
2018-05-02T19:13:17.836Z,3.63
2018-05-02T19:15:45.417Z,3.53
2018-05-02T19:18:18.506Z,4.00
2018-05-02T19:20:46.095Z,4.07
2018-05-02T19:23:13.644Z,3.73
2018-05-02T19:25:46.707Z,3.63
2018-05-02T19:28:14.354Z,4.17
2018-05-02T19:30:42.036Z,3.60
2018-05-02T19:33:15.095Z,3.80
2018-05-02T19:35:42.726Z,3.83
2018-05-02T19:38:11.309Z,4.13
2018-05-02T19:40:44.499Z,3.43
2018-05-02T19:43:17.681Z,3.70
2018-05-02T19:45:45.390Z,4.10
2018-05-02T19:48:13.569Z,4.23
2018-05-02T19:50:41.268Z,4.33
2018-05-02T19:53:08.906Z,3.80
2018-05-02T19:55:36.475Z,4.17
2018-05-02T19:58:04.050Z,3.90
2018-05-02T20:00:37.062Z,4.40
2018-05-02T20:03:04.644Z,4.00
2018-05-02T20:05:32.198Z,4.40
2018-05-02T20:07:59.757Z,4.50
2018-05-02T20:10:32.714Z,4.17
2018-05-02T20:13:05.883Z,3.73
2018-05-02T20:15:33.440Z,4.13
2018-05-02T20:18:01.009Z,4.33
2018-05-02T20:20:28.589Z,3.90
2018-05-02T20:22:56.131Z,5.07
2018-05-02T20:25:23.720Z,4.77
2018-05-02T20:27:51.283Z,4.73
2018-05-02T20:30:18.831Z,4.00
2018-05-02T20:32:46.384Z,4.57
2018-05-02T20:35:13.951Z,4.17
2018-05-02T20:37:41.505Z,4.50
2018-05-02T20:40:09.050Z,5.50
2018-05-02T20:42:36.968Z,5.57
2018-05-02T20:45:04.538Z,5.37
2018-05-02T20:47:32.111Z,5.43
2018-05-02T20:49:59.693Z,6.70
2018-05-02T20:52:27.227Z,5.80
2018-05-02T20:54:54.896Z,6.33
2018-05-02T20:57:22.433Z,6.50
2018-05-02T20:59:50.004Z,6.47
2018-05-02T21:02:17.559Z,6.80
2018-05-02T21:04:45.168Z,7.13
2018-05-02T21:07:12.718Z,7.83
2018-05-02T21:09:40.264Z,7.13
2018-05-02T21:12:07.998Z,7.77
2018-05-02T21:14:35.629Z,6.90
2018-05-02T21:17:03.153Z,7.70
2018-05-02T21:19:30.731Z,7.70
2018-05-02T21:21:58.263Z,8.23
2018-05-02T21:24:25.815Z,7.17
2018-05-02T21:26:53.559Z,7.90
2018-05-02T21:29:21.114Z,8.00
2018-05-02T21:31:48.654Z,8.47
2018-05-02T21:34:16.332Z,7.80
2018-05-02T21:36:43.867Z,8.23
2018-05-02T21:39:11.434Z,9.13
2018-05-02T21:41:39.141Z,8.50
2018-05-02T21:44:06.680Z,8.53
2018-05-02T21:46:34.215Z,8.00
2018-05-02T21:49:02.082Z,7.67
2018-05-02T21:51:29.630Z,7.60
2018-05-02T21:53:57.207Z,8.17
2018-05-02T21:56:24.937Z,8.77
2018-05-02T21:58:52.486Z,8.57
2018-05-02T22:01:20.044Z,8.13
2018-05-02T22:03:47.629Z,8.10
2018-05-02T22:06:15.167Z,8.03
2018-05-02T22:08:42.713Z,7.60
2018-05-02T22:11:10.476Z,7.67
2018-05-02T22:13:38.026Z,7.03
2018-05-02T22:16:05.582Z,6.83
2018-05-02T22:18:33.154Z,7.03
2018-05-02T22:21:00.712Z,7.70
2018-05-02T22:23:28.254Z,8.07
2018-05-02T22:25:55.900Z,8.37
2018-05-02T22:28:23.439Z,7.77
2018-05-02T22:30:50.989Z,7.50
2018-05-02T22:33:18.562Z,7.70
2018-05-02T22:35:46.096Z,6.87
2018-05-02T22:38:13.640Z,7.37
2018-05-02T22:40:41.320Z,7.50
2018-05-02T22:43:08.868Z,7.17
2018-05-02T22:45:36.417Z,7.30
2018-05-02T22:48:04.138Z,7.47
2018-05-02T22:50:31.666Z,7.90
2018-05-02T22:52:59.210Z,7.30
2018-05-02T22:55:26.928Z,7.57
2018-05-02T22:57:54.476Z,7.90
2018-05-02T23:00:22.028Z,7.63
2018-05-02T23:02:49.608Z,7.70
2018-05-02T23:05:17.147Z,8.50
2018-05-02T23:07:44.705Z,8.47
2018-05-02T23:10:12.618Z,8.30
2018-05-02T23:12:40.163Z,8.50
2018-05-02T23:15:07.707Z,7.90
2018-05-02T23:17:35.604Z,7.77
2018-05-02T23:20:03.142Z,7.23
2018-05-02T23:36:15.348Z,7.53
2018-05-02T23:38:42.904Z,7.13
2018-05-02T23:41:10.447Z,8.10
2018-05-02T23:43:38.122Z,8.00
2018-05-02T23:46:05.667Z,7.47
2018-05-02T23:48:33.204Z,7.47
2018-05-02T23:51:00.779Z,7.33
2018-05-02T23:53:28.320Z,7.57
2018-05-02T23:55:55.877Z,8.37
2018-05-02T23:58:23.611Z,7.83
